Latest Weather Observations for Walgett

IDN60801

Issued at 12:52 pm EDT Thursday 21 February 2019 (issued every 10 minutes, with the page automatically refreshed every 10 minutes)

About weather observations | Map of weather stations | Latest weather observations for NSW | Other Formats
Station Details ID: 052088 Name: WALGETT AIRPORT AWS Lat: -30.04 Lon: 148.12 Height: 133.0 m
Data from the previous 72 hours. | See also: Recent months at Walgett
Date/Time
EDT
Temp
°C
App
Temp
°C
Dew
Point
°C
Rel
Hum
%
Delta-T
°C
Wind Press
QNH
hPa
Press
MSL
hPa
Rain since
9am
mm
Dir  Spd
km/h
Gust
km/h
Spd
kts
Gust
kts
21/12:30pm 32.1 30.0 15.1 35 10.5 S 20 35 11 19 1010.2 1009.3 0.0
21/12:00pm 32.1 30.3 15.6 37 10.3 S 19 30 10 16 1010.4 1009.5 0.0
21/11:30am 30.8 28.6 14.4 36 10.0 SSE 19 32 10 17 1010.7 1009.8 0.0
21/11:00am 30.1 27.8 14.2 38 9.7 SSE 19 30 10 16 1010.8 1009.9 0.0
21/10:30am 28.9 25.7 13.2 38 9.3 SSE 22 35 12 19 1010.8 1009.9 0.0
21/10:00am 28.1 23.9 12.5 38 9.2 SSE 26 35 14 19 1010.6 1009.7 0.0
21/09:30am 26.8 21.7 10.5 36 9.2 S 28 33 15 18 1010.5 1009.6 0.0
21/09:00am 25.2 19.2 6.9 31 9.6 S 28 35 15 19 1010.4 1009.5 0.0
21/08:30am 24.0 18.1 5.8 31 9.3 S 26 33 14 18 1010.2 1009.3 0.0
21/08:00am 22.8 16.5 3.9 29 9.3 S 26 33 14 18 1009.8 1008.9 0.0
21/07:30am 21.7 15.9 2.4 28 9.1 S 22 28 12 15 1009.5 1008.6 0.0
21/07:00am 21.3 15.1 2.1 28 9.0 S 24 28 13 15 1009.2 1008.4 0.0
21/06:30am 21.4 15.4 1.1 26 9.3 S 22 28 12 15 1009.0 1008.2 0.0
21/06:00am 21.9 15.1 1.0 25 9.6 SSW 26 33 14 18 1008.6 1007.8 0.0
21/05:30am 22.3 15.5 0.8 24 9.9 SSW 26 35 14 19 1008.5 1007.7 0.0
21/05:00am 22.5 16.0 0.4 23 10.1 SSW 24 35 13 19 1008.3 1007.5 0.0
21/04:30am 22.7 15.4 -0.1 22 10.3 SSW 28 35 15 19 1008.4 1007.6 0.0
21/04:00am 22.6 16.0 -0.2 22 10.3 SSW 24 32 13 17 1008.3 1007.5 0.0
21/03:30am 22.7 16.1 -0.7 21 10.5 SSW 24 33 13 18 1008.3 1007.5 0.0
21/03:00am 22.6 15.9 -0.8 21 10.5 SSW 24 30 13 16 1008.5 1007.7 0.0
21/02:30am 22.3 16.4 -1.1 21 10.4 SSW 20 28 11 15 1008.8 1008.0 0.0
21/02:00am 22.6 16.6 -1.5 20 10.7 SSW 20 24 11 13 1009.1 1008.3 0.0
21/01:30am 23.5 17.5 -1.4 19 11.1 SSW 20 28 11 15 1009.3 1008.5 0.0
21/01:00am 24.3 18.4 -0.8 19 11.4 SSW 20 26 11 14 1009.7 1008.8 0.0
21/12:30am 25.0 18.7 -0.9 18 11.8 SSW 22 28 12 15 1009.9 1009.0 0.0
21/12:00am 25.7 19.1 -0.4 18 12.1 SSW 24 32 13 17 1010.0 1009.1 0.0
 
Date/Time
EDT
Temp
°C
App
Temp
°C
Dew
Point
°C
Rel
Hum
%
Delta-T
°C
Wind Press
QNH
hPa
Press
MSL
hPa
Rain since
9am
mm
Dir  Spd
km/h
Gust
km/h
Spd
kts
Gust
kts
20/11:30pm 26.4 19.4 -0.6 17 12.5 SSW 26 33 14 18 1009.7 1008.8 0.0
20/11:00pm 26.8 20.2 -0.3 17 12.7 SSW 24 30 13 16 1009.3 1008.5 0.0
20/10:30pm 27.1 20.8 -0.9 16 13.0 SSW 22 30 12 16 1009.1 1008.3 0.0
20/10:00pm 27.7 21.5 -0.4 16 13.2 SSW 22 30 12 16 1008.8 1008.0 0.0
20/09:30pm 28.2 22.4 0.0 16 13.4 SSW 20 26 11 14 1008.4 1007.6 0.0
20/09:00pm 28.9 22.9 -1.2 14 14.1 SSW 20 26 11 14 1007.9 1007.1 0.0
20/08:30pm 29.9 23.1 -1.5 13 14.7 SSW 24 30 13 16 1007.5 1006.7 0.0
20/08:00pm 31.0 24.2 -1.7 12 15.4 SSW 24 35 13 19 1007.1 1006.3 0.0
20/07:30pm 32.4 24.7 -3.1 10 16.5 SSW 28 39 15 21 1006.8 1006.0 0.0
20/07:00pm 33.4 24.7 -3.7 9 17.2 SSW 33 43 18 23 1006.5 1005.7 0.0
20/06:30pm 34.1 25.4 -4.8 8 17.8 SSW 32 43 17 23 1006.4 1005.6 0.0
20/06:00pm 35.1 27.3 -4.1 8 18.3 SSW 28 41 15 22 1006.0 1005.2 0.0
20/05:30pm 35.8 28.4 -3.5 8 18.5 SSW 26 35 14 19 1005.8 1005.0 0.0
20/05:00pm 36.2 28.5 -3.3 8 18.8 SW 28 41 15 22 1005.9 1005.1 0.0
20/04:30pm 36.7 29.8 0.1 10 18.4 SW 26 35 14 19 1005.8 1005.0 0.0
20/04:00pm 35.6 29.0 -0.7 10 17.9 SW 24 35 13 19 1006.1 1005.3 0.0
20/03:30pm 36.0 29.6 3.3 13 17.2 SSW 26 39 14 21 1006.2 1005.4 0.0
20/03:00pm 35.7 30.4 5.1 15 16.6 SSW 22 33 12 18 1006.6 1005.8 0.0
20/02:30pm 35.2 30.0 7.3 18 15.6 SW 24 33 13 18 1007.0 1006.2 0.0
20/02:00pm 34.2 29.4 8.8 21 14.5 SW 24 32 13 17 1007.4 1006.6 0.0
20/01:30pm 34.1 29.2 10.0 23 14.0 SSW 26 35 14 19 1007.8 1007.0 0.0
20/01:00pm 33.7 29.0 12.1 27 12.9 SSW 28 37 15 20 1008.2 1007.4 0.0
20/12:30pm 32.6 28.5 12.8 30 11.9 SW 26 37 14 20 1008.6 1007.8 0.0
20/12:00pm 31.9 28.1 13.6 32 11.1 SW 26 37 14 20 1008.7 1007.9 0.0
20/11:30am 30.9 27.0 13.2 34 10.6 SSW 26 35 14 19 1008.9 1008.1 0.0
20/11:00am 29.6 25.7 13.4 37 9.7 SSW 26 35 14 19 1009.0 1008.2 0.0
20/10:30am 28.6 23.9 12.1 36 9.6 SSW 28 39 15 21 1009.1 1008.3 0.0
20/10:00am 27.4 22.1 9.7 33 9.9 SSW 28 35 15 19 1009.2 1008.4 0.0
20/09:30am 26.0 20.1 7.6 31 9.8 SSW 28 35 15 19 1009.1 1008.3 0.0
20/09:00am 25.2 19.2 5.4 28 10.2 S 26 35 14 19 1009.1 1008.3 0.0
20/08:30am 23.7 17.8 1.4 23 10.5 SSW 22 30 12 16 1008.8 1008.0 0.0
20/08:00am 22.6 16.4 -0.2 22 10.3 SSW 22 28 12 15 1008.5 1007.7 0.0
20/07:30am 21.5 16.1 -1.1 22 10.0 SSW 17 20 9 11 1008.1 1007.3 0.0
20/07:00am 21.2 15.5 -0.7 23 9.7 SSW 19 26 10 14 1007.8 1007.0 0.0
20/06:30am 21.2 15.9 -0.7 23 9.7 SW 17 20 9 11 1007.3 1006.5 0.0
20/06:00am 21.3 15.8 -1.9 21 10.1 SSW 17 20 9 11 1007.2 1006.4 0.0
20/05:30am 22.1 16.6 -1.9 20 10.5 SSW 17 22 9 12 1006.9 1006.1 0.0
20/05:00am 22.4 16.5 -2.3 19 10.7 SSW 19 22 10 12 1007.0 1006.2 0.0
20/04:30am 22.9 16.9 -1.9 19 10.9 SSW 20 28 11 15 1007.0 1006.2 0.0
20/04:00am 22.7 16.8 -2.1 19 10.9 SW 19 24 10 13 1006.9 1006.1 0.0
20/03:30am 23.8 17.9 -1.9 18 11.4 SSW 19 26 10 14 1007.2 1006.4 0.0
20/03:00am 24.5 18.5 -1.3 18 11.6 SSW 20 24 11 13 1007.2 1006.4 0.0
20/02:30am 24.9 19.0 -1.0 18 11.8 SSW 20 28 11 15 1007.3 1006.5 0.0
20/02:00am 25.3 18.9 -1.5 17 12.1 SSW 22 26 12 14 1007.5 1006.7 0.0
20/01:30am 26.0 19.3 -0.9 17 12.3 S 24 28 13 15 1007.7 1006.9 0.0
20/01:00am 27.0 20.3 -0.9 16 12.9 SSW 24 32 13 17 1007.8 1007.0 0.0
20/12:30am 27.4 20.9 0.2 17 12.9 S 24 32 13 17 1007.8 1007.0 0.0
20/12:00am 28.0 21.2 0.7 17 13.1 S 26 32 14 17 1007.7 1006.9 0.0
 
Date/Time
EDT
Temp
°C
App
Temp
°C
Dew
Point
°C
Rel
Hum
%
Delta-T
°C
Wind Press
QNH
hPa
Press
MSL
hPa
Rain since
9am
mm
Dir  Spd
km/h
Gust
km/h
Spd
kts
Gust
kts
19/11:30pm 28.9 21.9 2.2 18 13.2 S 28 37 15 20 1007.6 1006.8 0.0
19/11:00pm 29.6 22.4 2.8 18 13.5 S 30 39 16 21 1007.6 1006.8 0.0
19/10:30pm 30.6 23.1 3.6 18 13.8 S 32 43 17 23 1007.3 1006.5 0.0
19/10:00pm 31.5 25.2 5.8 20 13.8 SSW 28 41 15 22 1006.8 1006.0 0.0
19/09:30pm 32.3 25.8 6.5 20 14.0 SSW 30 37 16 20 1006.2 1005.4 0.0
19/09:00pm 33.3 26.6 7.3 20 14.4 SSW 32 39 17 21 1005.5 1004.7 0.0
19/08:30pm 34.3 27.8 8.1 20 14.7 SSW 32 43 17 23 1004.9 1004.1 0.0
19/08:00pm 35.8 28.8 8.6 19 15.6 SSW 35 44 19 24 1004.2 1003.3 0.0
19/07:30pm 37.5 30.8 8.3 17 16.7 SSW 33 46 18 25 1003.4 1002.5 0.0
19/07:00pm 39.0 32.2 6.7 14 18.3 SSW 32 46 17 25 1002.8 1001.9 0.0
19/06:30pm 40.5 34.1 3.0 10 20.1 SW 26 43 14 23 1002.4 1001.5 0.0
19/06:09pm 41.3 34.3 2.1 9 20.9 WSW 28 48 15 26 1002.0 1001.1 0.0
19/06:00pm 41.5 35.3 2.3 9 21.0 SW 24 43 13 23 1002.1 1001.2 0.0
19/05:30pm 42.1 36.7 2.7 9 21.2 W 20 32 11 17 1002.0 1001.1 0.0
19/05:00pm 41.9 35.8 2.6 9 21.2 WSW 24 39 13 21 1001.9 1001.0 0.0
19/04:30pm 42.3 35.8 2.8 9 21.3 W 26 37 14 20 1001.9 1001.0 0.0
19/04:00pm 42.6 36.9 3.1 9 21.6 W 22 43 12 23 1002.1 1001.2 0.0
19/03:30pm 41.1 37.2 3.4 10 20.4 W 13 26 7 14 1002.5 1001.6 0.0
19/03:00pm 42.2 36.5 2.8 9 21.4 NW 22 30 12 16 1002.9 1002.0 0.0
19/02:30pm 42.6 38.9 4.6 10 21.1 NW 13 37 7 20 1003.4 1002.5 0.0
19/02:00pm 41.4 37.0 5.0 11 20.3 W 17 41 9 22 1003.9 1003.0 0.0
19/01:30pm 40.0 35.3 5.2 12 19.3 NNW 19 41 10 22 1004.5 1003.7 0.0
19/01:00pm 38.9 33.9 4.4 12 18.8 N 20 33 11 18 1005.2 1004.4 0.0
19/12:30pm 38.7 33.5 5.4 13 18.4 NW 22 35 12 19 1005.6 1004.8 0.0
19/12:00pm 37.5 32.7 5.5 14 17.6 N 20 30 11 16 1006.2 1005.4 0.0
19/11:30am 36.2 31.2 6.4 16 16.5 N 22 28 12 15 1006.5 1005.7 0.0
19/11:00am 35.5 31.1 7.6 18 15.7 N 20 30 11 16 1006.8 1006.0 0.0
19/10:30am 33.8 29.1 7.7 20 14.6 NNE 22 32 12 17 1006.9 1006.1 0.0
19/10:00am 32.6 27.8 7.4 21 13.9 NNE 22 28 12 15 1007.0 1006.2 0.0
19/09:30am 30.5 26.2 7.7 24 12.5 NNE 20 28 11 15 1007.2 1006.4 0.0
19/09:00am 28.9 24.6 8.0 27 11.5 NE 20 26 11 14 1007.2 1006.4 0.0
19/08:30am 27.3 22.5 7.2 28 10.8 NE 22 28 12 15 1007.1 1006.3 0.0
19/08:00am 26.8 23.6 6.8 28 10.6 ENE 13 19 7 10 1007.1 1006.3 0.0
19/07:30am 26.0 22.6 6.1 28 10.4 ENE 13 19 7 10 1006.6 1005.8 0.0
19/07:00am 26.0 22.5 5.6 27 10.6 E 13 17 7 9 1006.6 1005.8 0.0
19/06:30am 25.2 22.1 5.4 28 10.1 ESE 11 17 6 9 1006.0 1005.2 0.0
19/06:00am 24.6 22.2 5.4 29 9.8 SE 7 9 4 5 1005.2 1004.4 0.0
19/05:30am 25.3 22.8 5.0 27 10.3 ENE 7 11 4 6 1004.7 1003.9 0.0
19/05:00am 26.4 23.8 5.9 27 10.7 NNE 9 13 5 7 1004.4 1003.6 0.0
19/04:30am 28.2 24.6 6.9 26 11.4 N 15 19 8 10 1003.9 1003.0 0.0
19/04:00am 27.2 23.9 6.6 27 10.9 N 13 15 7 8 1004.0 1003.1 0.0
19/03:30am 27.8 24.0 6.0 25 11.5 NNE 15 17 8 9 1004.1 1003.2 0.0
19/03:00am 28.6 25.6 6.1 24 11.9 N 11 15 6 8 1004.4 1003.6 0.0
19/02:30am 29.4 25.7 6.1 23 12.4 N 15 19 8 10 1004.5 1003.7 0.0
19/02:00am 29.9 25.7 5.9 22 12.8 NNE 17 22 9 12 1004.8 1004.0 0.0
19/01:30am 30.5 26.1 6.4 22 12.9 NNE 19 24 10 13 1004.9 1004.1 0.0
19/01:00am 30.7 27.1 6.6 22 13.0 NNE 15 20 8 11 1005.3 1004.5 0.0
19/12:30am 30.9 26.4 6.0 21 13.3 NNE 19 22 10 12 1005.5 1004.7 0.0
19/12:00am 30.9 26.9 6.7 22 13.1 NNE 17 20 9 11 1005.6 1004.8 0.0
 
Date/Time
EDT
Temp
°C
App
Temp
°C
Dew
Point
°C
Rel
Hum
%
Delta-T
°C
Wind Press
QNH
hPa
Press
MSL
hPa
Rain since
9am
mm
Dir  Spd
km/h
Gust
km/h
Spd
kts
Gust
kts
18/11:30pm 30.2 26.1 6.1 22 12.9 NNE 17 19 9 10 1005.9 1005.1 0.0
18/11:00pm 30.6 26.8 5.8 21 13.2 NE 15 19 8 10 1006.1 1005.3 0.0
18/10:30pm 29.5 25.5 4.9 21 12.8 NE 15 17 8 9 1006.2 1005.4 0.0
18/10:00pm 29.9 26.9 5.9 22 12.8 NNE 11 11 6 6 1006.3 1005.5 0.0
18/09:30pm 31.0 28.3 5.4 20 13.6 NE 9 11 5 6 1006.1 1005.3 0.0
18/09:00pm 30.7 27.5 5.2 20 13.5 NE 11 13 6 7 1005.9 1005.1 0.0
18/08:30pm 32.9 30.4 4.6 17 15.0 NE 7 9 4 5 1005.9 1005.1 0.0
18/08:00pm 34.5 31.5 4.1 15 16.1 NE 9 9 5 5 1005.8 1005.0 0.0
18/07:30pm 37.0 34.2 5.1 14 17.4 NNE 9 11 5 6 1005.6 1004.8 0.0
18/07:00pm 37.7 35.4 5.6 14 17.7 NNE 7 13 4 7 1005.5 1004.7 0.0
18/06:30pm 38.2 35.9 5.0 13 18.2 N 6 11 3 6 1005.4 1004.6 0.0
18/06:00pm 38.4 34.8 5.1 13 18.3 NNE 13 19 7 10 1005.4 1004.6 0.0
18/05:30pm 38.3 35.1 5.0 13 18.2 NNE 11 19 6 10 1005.6 1004.8 0.0
18/05:00pm 38.3 35.5 5.0 13 18.3 N 9 20 5 11 1005.8 1005.0 0.0
18/04:30pm 38.3 34.9 6.1 14 17.9 NE 13 24 7 13 1006.0 1005.2 0.0
18/04:00pm 38.7 36.2 6.4 14 18.1 NNW 9 20 5 11 1006.3 1005.5 0.0
18/03:30pm 38.0 34.1 6.9 15 17.5 NW 17 26 9 14 1006.7 1005.9 0.0
18/03:00pm 37.4 34.5 6.4 15 17.3 NE 11 17 6 9 1007.3 1006.5 0.0
18/02:30pm 37.4 33.7 6.4 15 17.3 N 15 28 8 15 1007.9 1007.1 0.0
18/02:00pm 36.2 32.3 7.3 17 16.2 N 17 24 9 13 1008.5 1007.7 0.0
18/01:30pm 37.1 33.4 8.0 17 16.6 NNW 17 26 9 14 1008.9 1008.1 0.0
18/01:00pm 35.9 32.0 8.7 19 15.6 N 19 30 10 16 1009.5 1008.6 0.0

Other formats

Comma delimited format used in spreadsheet applications
http://www.bom.gov.au/fwo/IDN60801/IDN60801.95715.axf

JavaScript Object Notation format (JSON) in row-major order
http://www.bom.gov.au/fwo/IDN60801/IDN60801.95715.json

Data quality

Most of these data are generated automatically and are frequently updated. Quality checks on data are not normally performed. It is possible for incorrect values to appear. Refer to information at About Latest Weather Observations and please check the disclaimer before using these data.